Time;durP1;ratioP1;P1;durP2;ratioP2;P2;SDS_P1;SDS_P2;PMS_P1;PMS_P2;Temp;Humidity;BMP_temperature;BMP_pressure;BME280_temperature;BME280_humidity;BME280_pressure;Samples;Min_cycle;Max_cycle;Signal;HPM_P1;HPM_P2
2022/08/06 00:02:23;;;;;;;1.00;0.70;;;25.50;44.20;;;;;;6183237;23;20444;-51
2022/08/06 00:04:57;;;;;;;1.73;0.80;;;25.50;44.10;;;;;;6209981;23;20395;-51
2022/08/06 00:07:25;;;;;;;1.00;0.60;;;25.50;44.20;;;;;;6209392;23;20439;-51
2022/08/06 00:09:56;;;;;;;1.00;0.90;;;25.50;44.10;;;;;;6208897;23;20506;-52
2022/08/06 00:12:30;;;;;;;1.90;0.80;;;25.50;44.20;;;;;;6208939;23;20937;-50
2022/08/06 00:15:06;;;;;;;0.90;0.70;;;25.40;44.00;;;;;;6210214;23;20458;-51
2022/08/06 00:17:41;;;;;;;1.30;0.80;;;25.40;44.10;;;;;;6210427;23;20501;-51
2022/08/06 00:20:11;;;;;;;0.70;0.60;;;25.40;44.00;;;;;;6210566;23;20376;-51
2022/08/06 00:22:59;;;;;;;1.27;0.80;;;25.40;44.00;;;;;;6208639;23;20470;-51
2022/08/06 00:25:29;;;;;;;1.17;1.07;;;25.40;44.50;;;;;;6209301;23;20446;-51
2022/08/06 00:28:11;;;;;;;0.83;0.70;;;25.40;44.00;;;;;;6207894;23;20435;-50
2022/08/06 00:30:41;;;;;;;1.70;0.90;;;25.40;44.00;;;;;;6210132;23;20384;-50
2022/08/06 00:33:11;;;;;;;0.67;0.63;;;25.40;44.00;;;;;;6209219;23;20435;-51
2022/08/06 00:35:42;;;;;;;1.27;1.00;;;25.40;44.10;;;;;;6209247;23;20372;-51
2022/08/06 00:38:13;;;;;;;0.97;0.53;;;25.40;44.00;;;;;;6208736;23;20428;-51
2022/08/06 00:40:44;;;;;;;1.60;0.83;;;25.40;44.00;;;;;;6183336;23;20395;-51
2022/08/06 00:43:25;;;;;;;1.27;0.77;;;25.40;45.20;;;;;;6208713;23;20443;-51
2022/08/06 00:46:08;;;;;;;1.57;0.80;;;25.40;44.10;;;;;;6209434;23;20486;-51
2022/08/06 00:48:43;;;;;;;0.90;0.70;;;25.40;44.20;;;;;;6208338;23;20442;-51
2022/08/06 00:51:21;;;;;;;1.20;0.73;;;25.40;44.10;;;;;;6210078;23;20368;-51
2022/08/06 00:53:50;;;;;;;2.50;0.60;;;25.40;44.10;;;;;;6208642;23;20465;-51
2022/08/06 00:56:25;;;;;;;0.90;0.50;;;25.40;44.00;;;;;;6182152;23;20921;-51
2022/08/06 00:58:55;;;;;;;2.10;0.83;;;25.30;44.00;;;;;;6208609;23;20432;-51
2022/08/06 01:01:31;;;;;;;1.20;0.70;;;25.40;44.00;;;;;;6209657;23;20382;-50
2022/08/06 01:04:18;;;;;;;1.00;0.97;;;25.30;44.00;;;;;;6209091;23;20523;-51
2022/08/06 01:06:46;;;;;;;0.80;0.77;;;25.30;44.00;;;;;;6208756;23;20408;-51
2022/08/06 01:09:24;;;;;;;1.73;1.10;;;25.30;44.10;;;;;;6208391;23;20384;-50
2022/08/06 01:11:53;;;;;;;1.00;0.90;;;25.30;44.10;;;;;;6208461;23;20428;-51
2022/08/06 01:14:27;;;;;;;0.97;0.80;;;25.30;44.10;;;;;;6208380;23;20854;-51
2022/08/06 01:17:14;;;;;;;0.90;0.80;;;25.30;44.10;;;;;;6196516;23;20432;-51
2022/08/06 01:19:59;;;;;;;1.70;0.70;;;25.30;44.30;;;;;;6208470;23;20418;-51
2022/08/06 01:23:04;;;;;;;0.90;0.60;;;25.30;44.20;;;;;;6208260;23;20443;-51
2022/08/06 01:26:08;;;;;;;1.70;0.70;;;25.30;44.20;;;;;;6208495;23;20406;-54
2022/08/06 01:29:01;;;;;;;1.90;0.57;;;25.30;44.30;;;;;;6208120;23;20430;-54
2022/08/06 01:31:52;;;;;;;1.13;0.93;;;25.30;44.20;;;;;;6208474;23;20359;-54
2022/08/06 01:34:28;;;;;;;1.37;1.07;;;25.20;44.20;;;;;;6209030;23;20376;-51
2022/08/06 01:37:04;;;;;;;0.97;0.70;;;25.20;44.20;;;;;;6208251;23;20520;-50
2022/08/06 01:39:34;;;;;;;1.53;1.07;;;25.20;44.30;;;;;;6208515;23;20376;-51
2022/08/06 01:42:24;;;;;;;1.27;1.00;;;25.20;44.20;;;;;;6208943;23;20514;-51
2022/08/06 01:45:08;;;;;;;1.87;1.00;;;25.20;44.30;;;;;;6209277;23;20387;-50
2022/08/06 01:47:39;;;;;;;0.80;0.70;;;25.20;44.30;;;;;;6207784;23;20527;-51
2022/08/06 01:50:25;;;;;;;1.37;0.80;;;25.20;44.30;;;;;;6209405;23;20829;-51
2022/08/06 01:52:57;;;;;;;1.10;0.80;;;25.20;44.30;;;;;;6208331;23;20423;-51
2022/08/06 01:55:29;;;;;;;0.80;0.70;;;25.20;44.30;;;;;;6208320;23;20380;-50
2022/08/06 01:58:19;;;;;;;2.13;0.90;;;25.20;44.30;;;;;;6209517;23;20852;-51
2022/08/06 02:01:00;;;;;;;1.67;1.07;;;25.10;44.30;;;;;;6210835;23;20423;-51
2022/08/06 02:03:33;;;;;;;1.90;0.87;;;25.20;44.30;;;;;;6211775;23;20447;-51
2022/08/06 02:06:20;;;;;;;1.10;0.77;;;25.20;44.30;;;;;;6204098;23;20490;-51
2022/08/06 02:08:59;;;;;;;1.37;1.10;;;25.10;44.20;;;;;;6211400;23;20459;-51
2022/08/06 02:11:51;;;;;;;0.97;0.73;;;25.10;44.30;;;;;;6211761;23;20499;-51
2022/08/06 02:14:33;;;;;;;2.80;0.93;;;25.10;45.50;;;;;;6212554;23;20395;-51
2022/08/06 02:17:04;;;;;;;1.03;0.80;;;25.10;44.30;;;;;;6212099;23;20440;-51
2022/08/06 02:19:44;;;;;;;1.37;0.73;;;25.10;44.30;;;;;;6212422;23;20454;-51
2022/08/06 02:22:28;;;;;;;0.83;0.70;;;25.10;44.30;;;;;;6212660;23;20423;-50
2022/08/06 02:25:01;;;;;;;1.57;0.90;;;25.10;44.30;;;;;;6212662;23;20720;-52
2022/08/06 02:27:50;;;;;;;1.00;0.90;;;25.10;44.40;;;;;;6212311;23;20507;-51
2022/08/06 02:30:29;;;;;;;1.00;0.90;;;25.10;44.30;;;;;;6213106;23;20400;-51
2022/08/06 02:33:05;;;;;;;1.77;0.90;;;25.10;44.30;;;;;;6211828;23;20424;-55
2022/08/06 02:35:40;;;;;;;1.53;1.10;;;25.10;44.30;;;;;;6213271;23;20387;-53
2022/08/06 02:38:14;;;;;;;1.20;1.10;;;25.10;44.30;;;;;;6211723;23;20441;-55
2022/08/06 02:40:47;;;;;;;1.23;0.80;;;25.10;44.30;;;;;;6212566;23;20376;-56
2022/08/06 02:43:23;;;;;;;1.20;0.80;;;25.10;44.20;;;;;;6211813;23;20433;-55
2022/08/06 02:46:08;;;;;;;1.37;1.07;;;25.10;44.20;;;;;;6213033;23;20379;-55
2022/08/06 02:48:43;;;;;;;1.93;0.80;;;25.00;44.30;;;;;;6210797;23;20956;-52
2022/08/06 02:51:19;;;;;;;1.30;0.83;;;25.10;44.40;;;;;;6213205;23;20459;-52
2022/08/06 02:54:11;;;;;;;1.07;0.97;;;25.00;44.30;;;;;;6212748;23;20408;-56
2022/08/06 02:56:44;;;;;;;0.80;0.80;;;25.00;44.30;;;;;;6211345;23;20499;-55
2022/08/06 02:59:16;;;;;;;1.50;1.00;;;25.00;44.30;;;;;;6212288;23;20384;-55
2022/08/06 03:01:52;;;;;;;1.10;0.70;;;25.00;44.40;;;;;;6211799;23;20371;-54
2022/08/06 03:04:24;;;;;;;2.00;0.97;;;25.00;44.40;;;;;;6209264;23;20443;-54
2022/08/06 03:07:04;;;;;;;1.73;0.83;;;25.00;44.40;;;;;;6209544;23;20435;-54
2022/08/06 03:09:54;;;;;;;2.23;1.00;;;25.00;44.40;;;;;;6207822;23;20418;-52
2022/08/06 03:12:25;;;;;;;1.03;0.90;;;25.00;44.30;;;;;;6208105;23;20428;-53
2022/08/06 03:15:01;;;;;;;1.80;0.83;;;25.00;44.50;;;;;;6209469;23;20376;-55
2022/08/06 03:17:39;;;;;;;0.70;0.70;;;24.90;44.30;;;;;;6208094;23;20419;-55
2022/08/06 03:20:10;;;;;;;1.00;0.83;;;24.90;44.30;;;;;;6208706;23;20492;-54
2022/08/06 03:22:47;;;;;;;1.37;0.67;;;24.90;44.50;;;;;;6208429;23;20519;-54
2022/08/06 03:25:17;;;;;;;0.97;0.90;;;24.90;44.40;;;;;;6208835;23;20419;-55
2022/08/06 03:27:50;;;;;;;1.67;1.10;;;24.90;44.50;;;;;;6210266;23;20795;-54
2022/08/06 03:30:24;;;;;;;0.93;0.83;;;24.90;44.40;;;;;;6211472;23;20372;-55
2022/08/06 03:33:02;;;;;;;1.27;0.80;;;24.90;44.40;;;;;;6209960;23;20902;-55
2022/08/06 03:35:54;;;;;;;1.07;0.97;;;24.90;44.50;;;;;;6211784;23;20399;-54
2022/08/06 03:38:23;;;;;;;1.87;0.90;;;24.90;44.50;;;;;;6210713;23;20573;-55
2022/08/06 03:40:59;;;;;;;1.73;0.77;;;24.90;44.50;;;;;;6210281;23;20368;-54
2022/08/06 03:43:29;;;;;;;1.67;1.03;;;24.90;44.50;;;;;;6209712;23;20427;-54
2022/08/06 03:46:21;;;;;;;1.87;0.60;;;24.90;44.50;;;;;;6210720;23;20422;-54
2022/08/06 03:48:52;;;;;;;1.40;0.90;;;24.90;44.60;;;;;;6208596;23;20439;-55
2022/08/06 03:51:26;;;;;;;1.07;0.90;;;24.90;44.50;;;;;;6210522;23;20399;-55
2022/08/06 03:54:18;;;;;;;1.13;0.80;;;24.80;44.40;;;;;;6210345;23;20406;-56
2022/08/06 03:57:06;;;;;;;1.07;0.90;;;24.80;44.40;;;;;;6209452;23;20432;-56
2022/08/06 03:59:42;;;;;;;1.10;0.87;;;24.80;44.50;;;;;;6210371;23;20372;-54
2022/08/06 04:02:32;;;;;;;1.67;0.80;;;24.80;44.50;;;;;;6209352;23;20762;-54
2022/08/06 04:05:15;;;;;;;1.20;0.80;;;24.80;44.50;;;;;;6209896;23;20412;-55
2022/08/06 04:07:45;;;;;;;0.87;0.80;;;24.80;44.60;;;;;;6209175;23;20518;-54
2022/08/06 04:10:26;;;;;;;1.10;0.83;;;24.80;44.50;;;;;;6209164;23;20857;-54
2022/08/06 04:13:04;;;;;;;0.90;0.80;;;24.80;44.60;;;;;;6209094;23;20431;-54
2022/08/06 04:15:54;;;;;;;0.80;0.80;;;24.70;44.50;;;;;;6210368;23;20394;-55
2022/08/06 04:18:27;;;;;;;1.33;1.00;;;24.70;44.50;;;;;;6208097;23;21004;-54
2022/08/06 04:21:00;;;;;;;1.13;0.87;;;24.70;44.60;;;;;;6210640;23;20372;-57
2022/08/06 04:23:49;;;;;;;0.90;0.90;;;24.70;44.60;;;;;;6209466;23;20769;-54
2022/08/06 04:26:24;;;;;;;1.90;1.00;;;24.70;44.60;;;;;;6209479;23;20784;-55
2022/08/06 04:28:56;;;;;;;1.73;1.10;;;24.70;44.50;;;;;;6208448;23;20419;-54
2022/08/06 04:31:28;;;;;;;1.00;0.90;;;24.70;44.60;;;;;;6210005;23;20372;-54
2022/08/06 04:34:22;;;;;;;1.33;0.90;;;24.70;44.60;;;;;;6209367;23;20721;-54
2022/08/06 04:36:56;;;;;;;1.20;0.90;;;24.70;44.60;;;;;;6209267;23;20446;-55
2022/08/06 04:39:26;;;;;;;1.27;0.90;;;24.70;44.60;;;;;;6209926;23;20388;-54
2022/08/06 04:42:14;;;;;;;1.53;0.80;;;24.70;44.60;;;;;;6209843;23;20438;-54
2022/08/06 04:44:44;;;;;;;1.43;0.80;;;24.70;44.60;;;;;;6210224;23;20434;-55
2022/08/06 04:47:12;;;;;;;1.83;1.20;;;24.70;45.80;;;;;;6209407;23;20431;-55
2022/08/06 04:49:47;;;;;;;1.30;1.00;;;24.60;44.50;;;;;;6209082;23;20878;-54
2022/08/06 04:52:32;;;;;;;3.73;1.10;;;24.60;44.60;;;;;;6209149;23;20454;-54
2022/08/06 04:55:20;;;;;;;1.30;1.20;;;24.60;44.60;;;;;;6209213;23;20430;-54
2022/08/06 04:57:54;;;;;;;2.07;1.20;;;24.60;44.60;;;;;;6208149;23;20435;-54
2022/08/06 05:00:31;;;;;;;1.47;1.10;;;24.60;44.70;;;;;;6209480;23;20383;-54
2022/08/06 05:03:19;;;;;;;1.00;0.87;;;24.60;44.60;;;;;;6209323;23;20941;-55
2022/08/06 05:06:12;;;;;;;1.30;0.83;;;24.60;44.70;;;;;;6209138;23;20432;-55
2022/08/06 05:08:44;;;;;;;1.47;0.93;;;24.60;44.60;;;;;;6208284;23;20436;-54
2022/08/06 05:11:24;;;;;;;1.47;0.80;;;24.50;44.60;;;;;;6209664;23;20384;-53
2022/08/06 05:13:56;;;;;;;0.90;0.70;;;24.60;44.70;;;;;;6209048;23;20708;-53
2022/08/06 05:16:27;;;;;;;1.23;0.80;;;24.60;44.60;;;;;;6211401;23;20392;-54
2022/08/06 05:19:00;;;;;;;1.30;1.00;;;24.50;44.50;;;;;;6207664;23;20952;-54
2022/08/06 05:21:49;;;;;;;1.00;0.90;;;24.50;44.50;;;;;;6210201;23;20376;-54
2022/08/06 05:24:38;;;;;;;1.20;0.90;;;24.50;44.50;;;;;;6182557;23;20471;-55
2022/08/06 05:27:27;;;;;;;0.60;0.60;;;24.50;44.50;;;;;;6208252;23;20788;-55
2022/08/06 05:30:16;;;;;;;0.80;0.80;;;24.50;44.60;;;;;;6209445;23;20439;-53
2022/08/06 05:32:45;;;;;;;3.07;1.00;;;24.50;44.60;;;;;;6208517;23;20462;-54
2022/08/06 05:35:20;;;;;;;1.53;1.10;;;24.50;44.70;;;;;;6209100;23;20368;-54
2022/08/06 05:37:50;;;;;;;1.60;0.83;;;24.50;44.70;;;;;;6206855;23;20455;-55
2022/08/06 05:40:35;;;;;;;1.20;1.10;;;24.50;44.70;;;;;;6208014;23;20855;-54
2022/08/06 05:43:24;;;;;;;1.93;0.80;;;24.50;44.50;;;;;;6207895;23;20435;-54
2022/08/06 05:46:16;;;;;;;1.00;0.90;;;24.40;44.50;;;;;;6209428;23;20427;-54
2022/08/06 05:48:54;;;;;;;1.13;1.03;;;24.50;44.70;;;;;;6206732;23;20427;-54
2022/08/06 05:51:29;;;;;;;1.10;0.87;;;24.50;44.80;;;;;;6209659;23;20414;-54
2022/08/06 05:54:23;;;;;;;1.20;0.80;;;24.40;44.50;;;;;;6209131;23;20400;-54
2022/08/06 05:56:55;;;;;;;1.30;1.20;;;24.40;44.50;;;;;;6208665;23;20901;-54
2022/08/06 05:59:38;;;;;;;1.00;0.77;;;24.40;44.50;;;;;;6208250;23;20460;-54
2022/08/06 06:02:28;;;;;;;3.40;1.10;;;24.40;44.50;;;;;;6208137;23;20459;-53
2022/08/06 06:05:00;;;;;;;1.20;0.80;;;24.40;44.50;;;;;;6207207;23;20410;-55
2022/08/06 06:07:49;;;;;;;0.97;0.90;;;24.40;44.50;;;;;;6207234;23;20459;-55
2022/08/06 06:10:40;;;;;;;2.70;1.27;;;24.40;44.50;;;;;;6208244;23;20482;-54
2022/08/06 06:13:21;;;;;;;1.57;1.00;;;24.40;44.50;;;;;;6206124;23;20579;-54
2022/08/06 06:16:12;;;;;;;1.10;0.80;;;24.40;44.50;;;;;;6209176;23;20380;-54
2022/08/06 06:19:09;;;;;;;1.17;1.00;;;24.40;44.50;;;;;;6206784;23;20955;-54
2022/08/06 06:21:52;;;;;;;1.17;1.07;;;24.40;44.50;;;;;;6209573;23;20376;-54
2022/08/06 06:24:28;;;;;;;1.47;1.10;;;24.40;44.60;;;;;;6209383;23;20372;-55
2022/08/06 06:27:04;;;;;;;3.50;0.97;;;24.30;44.50;;;;;;6207867;23;20813;-54
2022/08/06 06:29:59;;;;;;;1.47;0.90;;;24.30;44.40;;;;;;6208950;23;20384;-54
2022/08/06 06:32:46;;;;;;;1.70;1.17;;;24.30;44.60;;;;;;6207734;23;20427;-55
2022/08/06 06:35:26;;;;;;;3.50;1.60;;;24.30;44.60;;;;;;6209098;23;20706;-54
2022/08/06 06:38:21;;;;;;;5.03;1.70;;;24.30;44.50;;;;;;6207441;23;20464;-56
2022/08/06 06:40:59;;;;;;;4.23;1.80;;;24.20;44.30;;;;;;6208488;23;20404;-54
2022/08/06 06:43:51;;;;;;;2.30;1.40;;;24.20;44.10;;;;;;6207759;23;21132;-55
2022/08/06 06:46:26;;;;;;;4.20;1.53;;;24.20;43.90;;;;;;6207657;23;20806;-54
2022/08/06 06:49:15;;;;;;;1.90;1.23;;;24.20;43.60;;;;;;6196554;23;20878;-55
2022/08/06 06:52:09;;;;;;;2.97;1.63;;;24.20;43.40;;;;;;6208761;23;20439;-54
2022/08/06 06:54:42;;;;;;;3.33;1.87;;;24.30;43.00;;;;;;6208717;23;20380;-54
2022/08/06 06:57:18;;;;;;;3.97;1.50;;;24.30;42.60;;;;;;6210273;23;20441;-54
2022/08/06 06:59:53;;;;;;;5.37;1.90;;;24.30;42.60;;;;;;6208380;23;20372;-54
2022/08/06 07:02:42;;;;;;;8.70;2.00;;;24.40;42.10;;;;;;6182857;23;20431;-54
2022/08/06 07:05:14;;;;;;;5.43;1.70;;;24.40;42.10;;;;;;6211320;23;20466;-54
2022/08/06 07:08:05;;;;;;;4.00;1.53;;;24.40;42.10;;;;;;6208921;23;20608;-54
2022/08/06 07:10:34;;;;;;;3.33;1.50;;;24.40;41.80;;;;;;6183639;23;20376;-54
2022/08/06 07:13:03;;;;;;;4.43;1.23;;;24.40;41.80;;;;;;6209922;23;20914;-52
2022/08/06 07:15:43;;;;;;;4.43;1.90;;;24.40;41.80;;;;;;6211011;23;20580;-54
2022/08/06 07:18:22;;;;;;;1.93;1.40;;;24.40;41.50;;;;;;6209118;23;20427;-52
2022/08/06 07:21:02;;;;;;;4.03;1.63;;;24.40;41.60;;;;;;6211311;23;20438;-54
2022/08/06 07:23:32;;;;;;;2.90;1.70;;;24.40;41.70;;;;;;6209701;23;20470;-54
2022/08/06 07:26:23;;;;;;;2.83;1.40;;;24.40;41.80;;;;;;6210163;23;20485;-54
2022/08/06 07:28:52;;;;;;;3.40;1.70;;;24.40;41.60;;;;;;6209017;23;20942;-54
2022/08/06 07:31:31;;;;;;;3.77;1.83;;;24.40;41.80;;;;;;6210756;23;20388;-54
2022/08/06 07:34:04;;;;;;;3.17;1.23;;;24.30;41.60;;;;;;6209559;23;20479;-54
2022/08/06 07:36:43;;;;;;;2.87;1.90;;;24.40;41.70;;;;;;6209756;23;20833;-54
2022/08/06 07:39:27;;;;;;;3.40;1.57;;;24.40;41.60;;;;;;6209778;23;20396;-54
2022/08/06 07:42:01;;;;;;;5.10;1.90;;;24.40;41.80;;;;;;6210142;23;20469;-53
2022/08/06 07:44:45;;;;;;;2.20;1.27;;;24.30;41.70;;;;;;6209885;23;20813;-54
2022/08/06 07:47:28;;;;;;;4.50;1.63;;;24.30;41.70;;;;;;6210203;23;20450;-54
2022/08/06 07:50:18;;;;;;;5.37;1.70;;;24.30;41.40;;;;;;6210195;23;20761;-54
2022/08/06 07:52:54;;;;;;;3.53;1.80;;;24.30;41.10;;;;;;6208674;23;20435;-53
2022/08/06 07:55:25;;;;;;;2.70;1.73;;;24.30;41.50;;;;;;6209743;23;20478;-54
2022/08/06 07:58:08;;;;;;;3.40;1.33;;;24.30;41.50;;;;;;6208363;23;20439;-53
2022/08/06 08:00:38;;;;;;;5.03;1.57;;;24.30;41.50;;;;;;6210114;23;20364;-54
2022/08/06 08:06:22;;;;;;;4.20;1.30;;;24.30;41.60;;;;;;6210796;23;20812;-54
2022/08/06 08:08:54;;;;;;;5.57;1.10;;;24.20;41.60;;;;;;6208894;23;20514;-55
2022/08/06 08:11:25;;;;;;;1.70;1.50;;;24.10;41.80;;;;;;6209947;23;20851;-55
2022/08/06 08:14:17;;;;;;;2.43;1.10;;;24.10;42.00;;;;;;6210010;23;20492;-55
2022/08/06 08:16:47;;;;;;;4.30;1.07;;;24.00;42.10;;;;;;6210645;23;20400;-56
2022/08/06 08:19:26;;;;;;;2.90;1.30;;;24.00;42.10;;;;;;6208663;23;20383;-55
2022/08/06 08:22:06;;;;;;;7.47;2.27;;;24.00;42.40;;;;;;6209833;23;20898;-54
2022/08/06 08:24:37;;;;;;;2.97;1.53;;;24.00;42.60;;;;;;6209351;23;20391;-56
2022/08/06 08:27:09;;;;;;;1.53;1.27;;;23.90;42.60;;;;;;6208902;23;20432;-54
2022/08/06 08:29:58;;;;;;;1.30;1.10;;;23.90;42.70;;;;;;6209587;23;20376;-54
2022/08/06 08:32:27;;;;;;;1.03;0.83;;;23.90;42.70;;;;;;6208596;23;20825;-55
2022/08/06 08:34:55;;;;;;;2.50;0.83;;;23.90;42.80;;;;;;6209488;23;20707;-56
2022/08/06 08:37:25;;;;;;;2.30;1.40;;;23.90;42.90;;;;;;6210008;23;20435;-55
2022/08/06 08:40:01;;;;;;;1.63;1.00;;;23.90;42.90;;;;;;6209653;23;20406;-55
2022/08/06 08:42:35;;;;;;;2.93;1.00;;;23.90;43.10;;;;;;6209047;23;20470;-54
2022/08/06 08:45:06;;;;;;;2.10;1.00;;;23.90;43.10;;;;;;6208951;23;20488;-52
2022/08/06 08:47:45;;;;;;;3.30;1.30;;;23.90;43.30;;;;;;6208994;23;20438;-54
2022/08/06 08:50:24;;;;;;;2.27;1.00;;;23.90;42.70;;;;;;6210086;23;20380;-56
2022/08/06 08:52:59;;;;;;;1.50;1.07;;;23.90;42.80;;;;;;6209174;23;20946;-54
2022/08/06 08:55:29;;;;;;;2.03;1.07;;;23.90;42.90;;;;;;6208757;23;20391;-57
2022/08/06 08:58:17;;;;;;;2.00;1.00;;;23.90;43.10;;;;;;6210137;23;20439;-54
2022/08/06 09:01:08;;;;;;;2.63;1.17;;;23.90;43.20;;;;;;6198956;23;20400;-54
2022/08/06 09:03:57;;;;;;;4.03;1.63;;;23.90;44.50;;;;;;6206097;23;20440;-54
2022/08/06 09:06:26;;;;;;;2.70;1.30;;;23.80;43.00;;;;;;6207718;23;20914;-57
2022/08/06 09:09:02;;;;;;;1.53;1.27;;;23.80;42.90;;;;;;6207315;23;20424;-54
2022/08/06 09:11:36;;;;;;;1.33;1.23;;;23.80;42.60;;;;;;6207988;23;20719;-52
2022/08/06 09:14:24;;;;;;;2.83;1.03;;;23.80;42.70;;;;;;6208841;23;20479;-54
2022/08/06 09:17:02;;;;;;;1.90;1.20;;;23.80;42.90;;;;;;6207566;23;20434;-56
2022/08/06 09:19:31;;;;;;;3.17;1.20;;;23.80;43.10;;;;;;6207211;23;20402;-54
2022/08/06 09:22:08;;;;;;;2.93;1.33;;;23.80;42.70;;;;;;6208179;23;20999;-55
2022/08/06 09:24:39;;;;;;;2.10;1.30;;;23.80;42.80;;;;;;6207859;23;20479;-56
2022/08/06 09:27:11;;;;;;;3.23;0.87;;;23.80;42.90;;;;;;6208710;23;20848;-55
2022/08/06 09:30:01;;;;;;;2.63;1.10;;;23.80;43.10;;;;;;6207450;23;20700;-54
2022/08/06 09:32:49;;;;;;;1.40;1.20;;;23.80;43.20;;;;;;6208343;23;20439;-54
2022/08/06 09:35:26;;;;;;;3.20;1.03;;;23.80;43.20;;;;;;6209273;23;20383;-54
2022/08/06 09:38:14;;;;;;;1.30;0.90;;;23.80;43.20;;;;;;6207466;23;20432;-54
2022/08/06 09:41:03;;;;;;;1.80;1.03;;;23.80;43.20;;;;;;6208511;23;20387;-56
2022/08/06 09:43:36;;;;;;;2.57;1.10;;;23.80;43.20;;;;;;6208414;23;20459;-56
2022/08/06 09:46:43;;;;;;;1.27;0.93;;;23.80;43.20;;;;;;6201766;23;20422;-55
2022/08/06 09:49:17;;;;;;;1.80;0.80;;;23.80;44.50;;;;;;6198674;23;20454;-54
2022/08/06 09:52:14;;;;;;;1.07;0.90;;;23.80;43.40;;;;;;6182011;23;20514;-55
2022/08/06 09:54:44;;;;;;;2.60;1.00;;;23.80;44.50;;;;;;6208511;23;20831;-54
2022/08/06 09:57:13;;;;;;;1.27;1.03;;;23.80;43.40;;;;;;6208065;23;20454;-54
2022/08/06 09:59:45;;;;;;;1.93;1.03;;;23.80;43.40;;;;;;6208470;23;20375;-55
2022/08/06 10:02:21;;;;;;;2.00;1.27;;;23.80;43.40;;;;;;6208171;23;20766;-55
2022/08/06 10:05:07;;;;;;;3.17;1.20;;;23.80;43.40;;;;;;6209177;23;20853;-56
2022/08/06 10:07:46;;;;;;;1.80;0.73;;;23.80;43.40;;;;;;6207811;23;20466;-55
2022/08/06 10:10:46;;;;;;;2.30;1.00;;;23.80;43.50;;;;;;6207957;23;20376;-55
2022/08/06 10:13:19;;;;;;;1.47;1.10;;;23.80;43.50;;;;;;6206370;23;20455;-55
2022/08/06 10:15:52;;;;;;;1.10;0.90;;;23.80;43.60;;;;;;6209383;23;20727;-54
2022/08/06 10:18:42;;;;;;;1.30;1.20;;;23.80;43.50;;;;;;6207249;23;20436;-53
2022/08/06 10:21:26;;;;;;;1.50;1.40;;;23.80;43.40;;;;;;6201385;23;20380;-53
2022/08/06 10:24:11;;;;;;;1.03;0.93;;;23.80;43.30;;;;;;6208304;23;20404;-53
2022/08/06 10:26:41;;;;;;;2.43;1.13;;;23.80;43.50;;;;;;6208403;23;20408;-53
2022/08/06 10:29:13;;;;;;;1.33;1.20;;;23.80;43.60;;;;;;6207713;23;20434;-53
2022/08/06 10:31:45;;;;;;;1.07;0.97;;;23.80;43.50;;;;;;6208865;23;20881;-53
2022/08/06 10:34:24;;;;;;;3.20;1.20;;;23.80;43.50;;;;;;6208698;23;20396;-53
2022/08/06 10:37:03;;;;;;;1.00;0.93;;;23.80;43.30;;;;;;6210070;23;20439;-53
2022/08/06 10:39:56;;;;;;;1.13;0.90;;;23.80;43.50;;;;;;6210805;23;20413;-53
2022/08/06 10:42:38;;;;;;;1.47;0.80;;;23.80;43.50;;;;;;6210164;23;20439;-53
2022/08/06 10:45:11;;;;;;;1.10;1.00;;;23.80;43.50;;;;;;6209891;23;20395;-53
2022/08/06 10:47:46;;;;;;;1.80;1.17;;;23.80;43.50;;;;;;6209060;23;20466;-52
2022/08/06 10:50:35;;;;;;;2.40;1.10;;;23.70;43.50;;;;;;6210644;23;20384;-53
2022/08/06 10:53:12;;;;;;;1.80;1.20;;;23.70;43.40;;;;;;6209429;23;20523;-53
2022/08/06 10:56:03;;;;;;;2.33;1.40;;;23.80;44.70;;;;;;6209794;23;20403;-53
2022/08/06 10:58:33;;;;;;;1.07;0.93;;;23.70;43.50;;;;;;6208780;23;20431;-53
2022/08/06 11:01:07;;;;;;;1.00;1.00;;;23.80;43.60;;;;;;6210456;23;20466;-53
2022/08/06 11:04:03;;;;;;;2.03;0.90;;;23.70;43.50;;;;;;6209309;23;20521;-53
2022/08/06 11:06:45;;;;;;;1.20;1.00;;;23.80;43.50;;;;;;6208607;23;20404;-54
2022/08/06 11:09:46;;;;;;;1.70;1.20;;;23.70;42.70;;;;;;6199965;23;20427;-54
2022/08/06 11:12:47;;;;;;;3.70;1.13;;;23.70;42.80;;;;;;6208738;23;20845;-53
2022/08/06 11:15:19;;;;;;;1.10;1.00;;;23.70;42.50;;;;;;6209356;23;20498;-54
2022/08/06 11:17:51;;;;;;;2.57;1.27;;;23.70;42.70;;;;;;6208636;23;20510;-53
2022/08/06 11:20:41;;;;;;;1.10;1.00;;;23.70;42.90;;;;;;6209732;23;20465;-54
2022/08/06 11:23:32;;;;;;;1.13;1.03;;;23.80;42.90;;;;;;6198855;23;20431;-53
2022/08/06 11:26:35;;;;;;;1.10;1.00;;;23.70;42.50;;;;;;6210164;23;20973;-53
2022/08/06 11:29:12;;;;;;;1.47;0.93;;;23.80;43.00;;;;;;6209607;23;20962;-53
2022/08/06 11:31:46;;;;;;;1.43;0.90;;;23.80;43.20;;;;;;6211504;23;20373;-53
2022/08/06 11:34:42;;;;;;;1.40;0.93;;;23.80;43.20;;;;;;6209954;23;20384;-53
2022/08/06 11:37:44;;;;;;;1.77;1.07;;;23.80;42.80;;;;;;6208546;23;20502;-54
2022/08/06 11:40:54;;;;;;;1.37;0.67;;;23.80;43.00;;;;;;6209567;23;20411;-53
2022/08/06 11:43:43;;;;;;;9.73;1.70;;;23.80;43.00;;;;;;6207457;23;20430;-54
2022/08/06 11:46:33;;;;;;;1.27;1.17;;;23.80;42.90;;;;;;6210199;23;20400;-54
2022/08/06 11:49:35;;;;;;;1.10;0.70;;;23.80;43.10;;;;;;6208907;23;20444;-54
2022/08/06 11:52:40;;;;;;;1.57;1.07;;;23.80;43.20;;;;;;6191751;23;20427;-53
2022/08/06 11:55:13;;;;;;;1.17;1.07;;;23.80;43.10;;;;;;6209866;23;20392;-53
2022/08/06 11:58:20;;;;;;;1.77;0.70;;;23.80;43.10;;;;;;6182214;23;20490;-53
2022/08/06 12:00:58;;;;;;;1.80;1.17;;;23.80;43.10;;;;;;6210775;23;20452;-53
2022/08/06 12:03:40;;;;;;;2.00;1.10;;;23.80;42.80;;;;;;6208852;23;20427;-54
2022/08/06 12:06:22;;;;;;;5.43;1.20;;;23.80;42.80;;;;;;6209478;23;20886;-54
2022/08/06 12:09:08;;;;;;;4.10;1.27;;;23.80;42.70;;;;;;6207262;23;20439;-52
2022/08/06 12:11:51;;;;;;;1.47;1.00;;;23.80;42.80;;;;;;6207699;23;20470;-52
2022/08/06 12:14:40;;;;;;;1.73;1.40;;;23.80;42.90;;;;;;6207836;23;20372;-53
2022/08/06 12:17:17;;;;;;;1.30;1.17;;;23.80;42.70;;;;;;6198689;23;20940;-52
2022/08/06 12:19:49;;;;;;;1.23;1.13;;;23.80;42.50;;;;;;6209121;23;20364;-53
2022/08/06 12:22:33;;;;;;;1.17;1.00;;;23.80;42.70;;;;;;6209035;23;20431;-52
2022/08/06 12:25:05;;;;;;;1.90;1.10;;;23.80;42.80;;;;;;6209497;23;20438;-52
2022/08/06 12:27:41;;;;;;;1.20;1.07;;;23.80;42.90;;;;;;6209536;23;21431;-52
2022/08/06 12:30:22;;;;;;;1.30;1.13;;;23.80;43.10;;;;;;6209398;23;20473;-51
2022/08/06 12:33:07;;;;;;;1.57;1.00;;;23.80;42.90;;;;;;6209138;23;21025;-52
2022/08/06 12:35:51;;;;;;;1.50;1.10;;;23.80;42.80;;;;;;6209696;23;20644;-52
2022/08/06 12:38:21;;;;;;;1.60;1.20;;;23.80;42.70;;;;;;6180700;23;20736;-53
2022/08/06 12:40:53;;;;;;;1.70;1.00;;;23.80;42.10;;;;;;6208106;23;20149;-53
2022/08/06 12:43:26;;;;;;;1.10;1.00;;;23.80;42.30;;;;;;6207513;23;20459;-52
2022/08/06 12:46:15;;;;;;;1.10;1.00;;;23.80;42.10;;;;;;6209842;23;20403;-53
2022/08/06 12:48:49;;;;;;;1.13;1.00;;;23.80;42.20;;;;;;6208708;23;20450;-53
2022/08/06 12:51:19;;;;;;;1.30;0.80;;;23.80;42.10;;;;;;6209354;23;20711;-53
2022/08/06 12:53:58;;;;;;;1.03;0.87;;;23.80;42.20;;;;;;6207951;23;20466;-53
2022/08/06 12:56:30;;;;;;;3.70;1.13;;;23.80;42.30;;;;;;6208526;23;20396;-53
2022/08/06 12:59:08;;;;;;;1.27;1.17;;;23.80;41.80;;;;;;6206997;23;20430;-53
2022/08/06 13:01:52;;;;;;;7.97;1.83;;;23.80;42.00;;;;;;6208683;23;20451;-53
2022/08/06 13:04:43;;;;;;;1.90;1.50;;;23.90;41.60;;;;;;6209428;23;20368;-53
2022/08/06 13:07:13;;;;;;;2.57;1.10;;;23.90;38.40;;;;;;6207695;23;20910;-53
2022/08/06 13:09:45;;;;;;;1.70;0.97;;;23.80;38.30;;;;;;6207974;23;20412;-54
2022/08/06 13:12:33;;;;;;;2.33;1.37;;;23.70;36.60;;;;;;6208294;23;20427;-53
2022/08/06 13:15:25;;;;;;;2.10;1.50;;;23.60;36.40;;;;;;6208285;23;20391;-53
2022/08/06 13:18:12;;;;;;;3.73;1.40;;;23.60;36.30;;;;;;6207733;23;20977;-53
2022/08/06 13:21:01;;;;;;;2.00;1.20;;;23.50;35.60;;;;;;6207758;23;20800;-54
2022/08/06 13:23:32;;;;;;;4.50;1.30;;;23.50;37.40;;;;;;6207065;23;20763;-53
2022/08/06 13:26:14;;;;;;;2.40;0.90;;;23.60;36.20;;;;;;6181341;23;20408;-53
2022/08/06 13:29:08;;;;;;;1.70;1.20;;;23.60;36.80;;;;;;6207705;23;20424;-53
2022/08/06 13:32:07;;;;;;;2.80;1.37;;;23.70;37.70;;;;;;6181508;23;20384;-53
2022/08/06 13:34:56;;;;;;;1.40;1.13;;;23.70;38.30;;;;;;6208142;23;20415;-54
2022/08/06 13:37:47;;;;;;;1.40;1.30;;;23.70;38.30;;;;;;6208066;23;20972;-53
2022/08/06 13:40:44;;;;;;;1.20;1.10;;;23.80;38.30;;;;;;6208753;23;20376;-52
2022/08/06 13:43:20;;;;;;;1.70;0.97;;;23.80;38.30;;;;;;6182011;23;20431;-54
2022/08/06 13:46:09;;;;;;;1.90;0.97;;;23.80;38.30;;;;;;6208321;23;20422;-53
2022/08/06 13:48:47;;;;;;;3.20;1.30;;;23.80;38.30;;;;;;6205926;23;20485;-53
2022/08/06 13:51:18;;;;;;;4.93;1.07;;;23.80;38.40;;;;;;6208654;23;20692;-52
2022/08/06 13:53:51;;;;;;;1.23;1.00;;;23.80;35.50;;;;;;6208128;23;20420;-53
2022/08/06 13:56:25;;;;;;;1.07;0.70;;;23.80;34.70;;;;;;6207423;23;20881;-53
2022/08/06 13:58:58;;;;;;;0.97;0.87;;;23.70;34.40;;;;;;6207958;23;20443;-53